Jaca, Aragón

latitud = 42° 34' 44''N | longitud = 000° 32' 49''W
823 metros sobre el nivel del mar | datos mensuales

Fecha, hora, temperatura, viento dirección y velocidad, humedad y presión.

  • 22-11-2017 09:00:00 | 3.20°C | Este |2.00 km/h | 62.00% | 0.00 hPa
  • 22-11-2017 08:00:00 | 3.60°C | Nordeste |9.00 km/h | 59.00% | 0.00 hPa
  • 22-11-2017 07:00:00 | 3.40°C | Nordeste |8.00 km/h | 61.00% | 0.00 hPa
  • 22-11-2017 06:00:00 | 4.30°C | Nordeste |14.00 km/h | 59.00% | 0.00 hPa
  • 22-11-2017 05:00:00 | 4.30°C | Nordeste |8.00 km/h | 61.00% | 0.00 hPa
  • 22-11-2017 04:00:00 | 3.50°C | Nordeste |2.00 km/h | 63.00% | 0.00 hPa
  • 22-11-2017 03:00:00 | 3.50°C | Nordeste |3.00 km/h | 65.00% | 0.00 hPa
  • 22-11-2017 02:00:00 | 4.40°C | Nordeste |8.00 km/h | 63.00% | 0.00 hPa
  • 22-11-2017 01:00:00 | 4.70°C | Nordeste |8.00 km/h | 62.00% | 0.00 hPa
  • 22-11-2017 00:00:00 | 4.70°C | Nordeste |8.00 km/h | 62.00% | 0.00 hPa
  • 21-11-2017 23:00:00 | 5.30°C | Nordeste |5.00 km/h | 61.00% | 0.00 hPa
  • 21-11-2017 22:00:00 | 4.80°C | Nordeste |7.00 km/h | 61.00% | 0.00 hPa
  • 21-11-2017 21:00:00 | 6.40°C | Nordeste |7.00 km/h | 57.00% | 0.00 hPa
  • 21-11-2017 20:00:00 | 6.80°C | Nordeste |9.00 km/h | 54.00% | 0.00 hPa
  • 21-11-2017 19:00:00 | 7.30°C | Nordeste |7.00 km/h | 52.00% | 0.00 hPa
  • 21-11-2017 18:00:00 | 9.80°C | Nordeste |7.00 km/h | 44.00% | 0.00 hPa
  • 21-11-2017 17:00:00 | 14.50°C | Calma |0.00 km/h | 37.00% | 0.00 hPa
  • 21-11-2017 16:00:00 | 16.50°C | Noroeste |6.00 km/h | 33.00% | 0.00 hPa
  • 21-11-2017 15:00:00 | 16.80°C | Oeste |5.00 km/h | 34.00% | 0.00 hPa
  • 21-11-2017 14:00:00 | 15.40°C | Noroeste |6.00 km/h | 37.00% | 0.00 hPa
  • 21-11-2017 13:00:00 | 16.10°C | Sudoeste |4.00 km/h | 37.00% | 0.00 hPa
  • 21-11-2017 12:00:00 | 14.00°C | Sur |2.00 km/h | 38.00% | 0.00 hPa
  • 21-11-2017 11:00:00 | 10.50°C | Sudeste |2.00 km/h | 49.00% | 0.00 hPa
  • 21-11-2017 10:00:00 | 5.70°C | Calma |0.00 km/h | 63.00% | 0.00 hPa